Terminal Aerodrome Forecast
Issued by NWS Lake Charles, LA

Home | Current Version | Previous Version | Text Only | Print | Product List | Glossary On
Versions: 1 2 3 4 5 6 7 8 9 10 11 12 13 14 15 16 17
000
FTUS44 KLCH 012300
TAFARA
TAF
KARA 012331Z 0200/0224 18010KT P6SM VCSH FEW012 SCT025 BKN040
      TEMPO 0200/0202 6SM -SHRA
     FM020200 16008KT P6SM FEW060 BKN250
     FM020500 15004KT P6SM FEW025 BKN035
     FM021600 17010KT P6SM VCSH SCT025 BKN050=

USA.gov is the U.S. government's official web portal to all federal, state and local government web resources and services.